Time;durP1;ratioP1;P1;durP2;ratioP2;P2;SDS_P1;SDS_P2;PMS_P1;PMS_P2;Temp;Humidity;BMP_temperature;BMP_pressure;BME280_temperature;BME280_humidity;BME280_pressure;Samples;Min_cycle;Max_cycle;Signal;HPM_P1;HPM_P2
2022/02/01 00:00:56;;;;;;;26.17;10.10;;;;;;;0.68;100.00;100822.84;5028241;28;20044;-79
2022/02/01 00:03:23;;;;;;;27.15;8.80;;;;;;;0.74;100.00;100814.56;5012630;28;20033;-80
2022/02/01 00:06:00;;;;;;;26.98;8.30;;;;;;;0.73;100.00;100812.88;5028717;28;20026;-79
2022/02/01 00:11:05;;;;;;;32.15;8.80;;;;;;;0.92;100.00;100814.34;5028155;28;20041;-80
2022/02/01 00:13:43;;;;;;;25.27;8.85;;;;;;;0.92;100.00;100809.06;5013160;28;20589;-80
2022/02/01 00:19:24;;;;;;;26.15;9.02;;;;;;;1.07;100.00;100818.59;5035264;28;20368;-80
2022/02/01 00:35:35;;;;;;;26.45;6.45;;;;;;;1.22;100.00;100799.19;5033150;28;20045;-80
2022/02/01 00:40:26;;;;;;;17.88;7.22;;;;;;;1.28;100.00;100779.50;5034107;28;20033;-80
2022/02/01 00:42:52;;;;;;;27.33;7.47;;;;;;;1.27;100.00;100778.69;5017603;28;20040;-81
2022/02/01 00:45:17;;;;;;;25.30;7.82;;;;;;;1.36;100.00;100785.13;5033737;28;20553;-80
2022/02/01 00:47:43;;;;;;;18.58;7.05;;;;;;;1.27;100.00;100773.41;5034612;28;20056;-80
2022/02/01 00:50:12;;;;;;;;;;;;;;;1.40;100.00;100789.22;5018345;28;20041;-78
2022/02/01 00:52:38;;;;;;;16.25;6.20;;;;;;;1.40;100.00;100778.69;5018321;28;19963;-80
2022/02/01 00:55:04;;;;;;;18.10;6.32;;;;;;;1.40;100.00;100769.97;5017478;28;20045;-80
2022/02/01 00:57:30;;;;;;;;;;;;;;;1.46;100.00;100772.19;5018992;28;20903;-81
2022/02/01 00:59:55;;;;;;;16.60;4.53;;;;;;;1.30;100.00;100748.69;5034839;28;19920;-80
2022/02/01 01:02:21;;;;;;;13.10;4.97;;;;;;;1.34;100.00;100744.91;5018750;28;20041;-80
2022/02/01 01:04:47;;;;;;;15.15;4.35;;;;;;;1.30;100.00;100740.81;5018856;28;20331;-79
2022/02/01 01:07:12;;;;;;;12.18;3.80;;;;;;;1.30;100.00;100737.34;5017429;28;20080;-81
2022/02/01 01:09:38;;;;;;;16.38;4.32;;;;;;;1.39;100.00;100752.50;5033860;28;20119;-80
2022/02/01 01:12:04;;;;;;;19.73;4.57;;;;;;;1.40;100.00;100744.50;5032908;28;20048;-81
2022/02/01 01:44:27;;;;;;;9.57;2.53;;;;;;;1.45;100.00;100634.53;5032161;28;20049;-81
2022/02/01 01:55:16;;;;;;;17.50;3.42;;;;;;;1.52;100.00;100634.94;5034555;28;20067;-81
2022/02/01 01:57:43;;;;;;;10.32;2.70;;;;;;;1.56;100.00;100635.56;5017811;28;20045;-82
2022/02/01 02:00:20;;;;;;;7.28;1.80;;;;;;;1.47;100.00;100618.63;5016721;28;20022;-80
2022/02/01 02:02:45;;;;;;;9.73;1.23;;;;;;;1.48;100.00;100623.78;5017492;28;20834;-80
2022/02/01 02:05:10;;;;;;;9.20;1.47;;;;;;;1.47;100.00;100627.38;5017586;28;20033;-81
2022/02/01 02:07:36;;;;;;;8.10;1.50;;;;;;;1.39;100.00;100600.75;5017785;28;20691;-82
2022/02/01 02:10:03;;;;;;;15.52;1.95;;;;;;;1.42;100.00;100612.84;5017102;28;20033;-81
2022/02/01 02:15:27;;;;;;;9.27;1.58;;;;;;;1.42;100.00;100610.22;5020764;28;20504;-81
2022/02/01 02:17:58;;;;;;;17.42;2.22;;;;;;;1.35;100.00;100595.81;5021430;28;20068;-80
2022/02/01 02:20:24;;;;;;;10.93;2.45;;;;;;;1.46;100.00;100611.69;5026849;28;20060;-81
2022/02/01 02:22:49;;;;;;;7.60;1.40;;;;;;;1.36;100.00;100598.34;5018962;28;20029;-81
2022/02/01 02:25:14;;;;;;;15.47;1.60;;;;;;;1.41;100.00;100600.66;5016322;28;20102;-82
2022/02/01 02:27:40;;;;;;;3.33;1.17;;;;;;;1.48;100.00;100601.91;5017047;28;20033;-81
2022/02/01 02:30:06;;;;;;;11.97;1.40;;;;;;;1.45;100.00;100610.00;5016683;28;20288;-80
2022/02/01 02:32:31;;;;;;;19.50;3.85;;;;;;;1.37;100.00;100607.91;5016860;28;20368;-81
2022/02/01 02:34:56;;;;;;;9.87;2.63;;;;;;;1.40;100.00;100612.13;5016093;28;20036;-82
2022/02/01 02:37:28;;;;;;;8.73;1.97;;;;;;;1.42;100.00;100616.31;5021021;28;20032;-81
2022/02/01 02:40:30;;;;;;;16.67;1.85;;;;;;;1.34;100.00;100604.66;5031992;28;20033;-81
2022/02/01 02:45:38;;;;;;;13.00;2.97;;;;;;;1.32;100.00;100617.09;5046053;28;20124;-81
2022/02/01 02:48:03;;;;;;;28.57;2.83;;;;;;;1.25;100.00;100616.66;5020278;28;20125;-81
2022/02/01 02:50:29;;;;;;;20.53;3.37;;;;;;;1.31;100.00;100628.53;5031530;28;20284;-81
2022/02/01 02:52:54;;;;;;;22.27;3.07;;;;;;;1.25;100.00;100621.91;5015732;28;20029;-81
2022/02/01 02:55:20;;;;;;;13.73;3.33;;;;;;;1.18;100.00;100616.22;5015394;28;20118;-82
2022/02/01 02:57:45;;;;;;;19.17;2.83;;;;;;;1.20;100.00;100629.28;5015467;28;20034;-80
2022/02/01 03:00:11;;;;;;;10.63;3.03;;;;;;;1.20;100.00;100632.75;5015426;28;20695;-81
2022/02/01 03:02:36;;;;;;;10.18;1.27;;;;;;;1.13;100.00;100622.78;5015334;28;20037;-81
2022/02/01 03:05:01;;;;;;;17.80;1.93;;;;;;;1.03;100.00;100618.13;5030449;28;20029;-81
2022/02/01 03:07:27;;;;;;;15.10;3.03;;;;;;;0.94;100.00;100615.28;5014600;28;20284;-81
2022/02/01 03:09:52;;;;;;;12.90;2.23;;;;;;;0.97;100.00;100629.06;5014395;28;20167;-79
2022/02/01 03:12:32;;;;;;;22.43;4.30;;;;;;;0.86;100.00;100614.94;5015581;28;20279;-81
2022/02/01 03:15:19;;;;;;;19.13;2.83;;;;;;;0.90;100.00;100621.69;5030394;28;20029;-81
2022/02/01 03:20:27;;;;;;;18.38;2.80;;;;;;;0.89;100.00;100630.50;5030012;28;20680;-80
2022/02/01 03:22:52;;;;;;;12.87;2.73;;;;;;;0.90;100.00;100632.22;5013417;28;20030;-81
2022/02/01 03:25:18;;;;;;;8.80;2.00;;;;;;;0.92;100.00;100630.31;5013185;28;20580;-80
2022/02/01 03:27:43;;;;;;;12.53;2.67;;;;;;;0.97;100.00;100622.97;5030303;28;20092;-81
2022/02/01 03:30:09;;;;;;;11.07;1.52;;;;;;;0.97;100.00;100617.69;5013375;28;20037;-81
2022/02/01 03:32:34;;;;;;;10.25;3.15;;;;;;;0.96;100.00;100616.00;5013439;28;20045;-81
2022/02/01 03:35:00;;;;;;;24.57;2.50;;;;;;;1.01;100.00;100622.66;5029639;28;20163;-81
2022/02/01 03:37:25;;;;;;;19.00;2.13;;;;;;;0.98;100.00;100609.72;5029533;28;20279;-81
2022/02/01 03:39:51;;;;;;;21.30;2.38;;;;;;;1.03;100.00;100604.13;5013522;28;20037;-81
2022/02/01 03:42:17;;;;;;;14.82;2.35;;;;;;;1.09;100.00;100616.88;5013844;28;20037;-80
2022/02/01 03:44:42;;;;;;;12.52;2.65;;;;;;;1.09;100.00;100601.09;5013608;28;20018;-81
2022/02/01 03:47:09;;;;;;;17.10;3.63;;;;;;;1.24;100.00;100614.97;5013733;28;20115;-80
2022/02/01 03:49:40;;;;;;;11.95;2.63;;;;;;;1.30;100.00;100608.44;5017436;28;20079;-81
2022/02/01 03:52:07;;;;;;;19.13;4.22;;;;;;;1.17;100.00;100582.13;5018212;28;20045;-81
2022/02/01 03:54:34;;;;;;;17.83;3.45;;;;;;;1.30;100.00;100595.31;5018073;28;20044;-81
2022/02/01 03:57:04;;;;;;;18.38;4.47;;;;;;;1.32;100.00;100585.50;5018163;28;20034;-80
2022/02/01 03:59:30;;;;;;;17.27;3.22;;;;;;;1.29;100.00;100570.78;5037266;28;20044;-80
2022/02/01 04:01:58;;;;;;;15.45;3.45;;;;;;;1.36;100.00;100579.06;5017526;28;20033;-80
2022/02/01 04:04:29;;;;;;;18.52;2.80;;;;;;;1.40;100.00;100559.50;5016775;28;20041;-81
2022/02/01 04:06:55;;;;;;;18.73;3.28;;;;;;;1.40;100.00;100548.97;5016477;28;20136;-81
2022/02/01 04:09:24;;;;;;;12.68;3.53;;;;;;;1.47;100.00;100566.00;5028211;28;20111;-81
2022/02/01 04:11:50;;;;;;;15.68;3.05;;;;;;;1.48;100.00;100562.44;5035357;28;20037;-81
2022/02/01 04:14:20;;;;;;;18.48;3.15;;;;;;;1.38;100.00;100564.03;5035224;28;20486;-81
2022/02/01 04:16:46;;;;;;;17.40;2.03;;;;;;;1.41;100.00;100562.03;5035601;28;20041;-80
2022/02/01 04:19:12;;;;;;;22.27;5.55;;;;;;;1.29;100.00;100555.00;5052689;28;20020;-80
2022/02/01 04:21:39;;;;;;;12.77;2.65;;;;;;;1.27;100.00;100568.25;5036007;28;20040;-80
2022/02/01 04:24:05;;;;;;;15.88;2.92;;;;;;;1.24;100.00;100568.47;5035264;28;20037;-81
2022/02/01 04:26:30;;;;;;;28.35;3.05;;;;;;;1.27;100.00;100560.38;5035969;28;20070;-81
2022/02/01 04:28:56;;;;;;;19.70;3.33;;;;;;;1.24;100.00;100560.59;5035797;28;20183;-81
2022/02/01 04:31:21;;;;;;;22.27;3.90;;;;;;;1.14;100.00;100551.66;5035438;28;20287;-81
2022/02/01 04:33:46;;;;;;;12.47;2.27;;;;;;;1.21;100.00;100563.41;5035363;28;20047;-81
2022/02/01 04:36:12;;;;;;;35.03;4.80;;;;;;;1.27;100.00;100570.88;5035505;28;20048;-80
2022/02/01 04:38:41;;;;;;;19.42;3.17;;;;;;;1.20;100.00;100561.75;5033728;28;20040;-80
2022/02/01 04:41:06;;;;;;;28.15;5.70;;;;;;;1.15;100.00;100561.22;5051275;28;20490;-81
2022/02/01 04:43:32;;;;;;;16.47;2.13;;;;;;;1.16;100.00;100569.94;5051517;28;20034;-80
2022/02/01 04:46:01;;;;;;;24.13;3.63;;;;;;;1.06;100.00;100561.88;5020479;28;20345;-81
2022/02/01 04:48:26;;;;;;;19.02;4.97;;;;;;;1.12;100.00;100579.00;5015599;28;20032;-81
2022/02/01 04:50:51;;;;;;;18.00;2.72;;;;;;;1.00;100.00;100565.75;5031498;28;20037;-81
2022/02/01 04:53:17;;;;;;;30.53;5.57;;;;;;;1.07;100.00;100576.69;5027245;28;20037;-81
2022/02/01 04:55:54;;;;;;;15.63;2.73;;;;;;;1.09;100.00;100580.06;5051533;28;20494;-81
2022/02/01 04:58:21;;;;;;;20.35;3.45;;;;;;;1.19;100.00;100606.56;5035309;28;20033;-81
2022/02/01 05:00:47;;;;;;;18.65;4.05;;;;;;;1.17;100.00;100604.03;5033931;28;20033;-80
2022/02/01 05:03:12;;;;;;;14.80;3.78;;;;;;;1.19;100.00;100594.22;5035292;28;20025;-80
2022/02/01 05:05:37;;;;;;;11.37;2.73;;;;;;;1.14;100.00;100593.72;5051771;28;20070;-81
2022/02/01 05:08:07;;;;;;;19.13;3.13;;;;;;;1.17;100.00;100604.03;5051846;28;20033;-80
2022/02/01 05:10:34;;;;;;;32.95;5.22;;;;;;;1.15;100.00;100611.19;5051927;28;20032;-80
2022/02/01 05:13:43;;;;;;;20.20;4.10;;;;;;;1.10;100.00;100596.66;5035301;28;20108;-81
2022/02/01 05:16:07;;;;;;;25.35;4.50;;;;;;;1.16;100.00;100609.41;5051265;28;20036;-81
2022/02/01 05:19:02;;;;;;;27.42;2.97;;;;;;;1.25;100.00;100617.50;5034992;28;20041;-81
2022/02/01 05:21:24;;;;;;;18.08;2.20;;;;;;;1.18;100.00;100604.88;5050901;28;20033;-81
2022/02/01 05:23:51;;;;;;;15.35;2.80;;;;;;;1.39;100.00;100613.91;5051123;28;20032;-81
2022/02/01 05:26:18;;;;;;;20.60;3.50;;;;;;;1.32;100.00;100603.94;5035148;28;20066;-80
2022/02/01 05:28:43;;;;;;;28.73;5.40;;;;;;;1.35;100.00;100601.91;5034319;28;20025;-80
2022/02/01 05:31:09;;;;;;;14.50;2.50;;;;;;;1.38;100.00;100600.84;5034799;28;20025;-81
2022/02/01 05:33:35;;;;;;;21.77;4.03;;;;;;;1.39;100.00;100586.78;5034522;28;20119;-81
2022/02/01 05:36:03;;;;;;;13.05;3.50;;;;;;;1.34;100.00;100568.69;5034813;28;20040;-81
2022/02/01 05:38:28;;;;;;;10.15;2.33;;;;;;;1.46;100.00;100567.81;5034952;28;20028;-81
2022/02/01 05:40:54;;;;;;;18.40;3.45;;;;;;;1.33;100.00;100545.94;5034446;28;20090;-81
2022/02/01 05:43:24;;;;;;;14.48;2.70;;;;;;;1.36;100.00;100563.28;5034640;28;20674;-81
2022/02/01 05:45:51;;;;;;;12.25;2.70;;;;;;;1.42;100.00;100565.50;5034279;28;20282;-81
2022/02/01 05:48:18;;;;;;;10.90;2.35;;;;;;;1.44;100.00;100559.19;5034417;28;20037;-81
2022/02/01 05:50:46;;;;;;;19.50;3.17;;;;;;;1.41;100.00;100553.31;5034182;28;20446;-80
2022/02/01 05:53:11;;;;;;;14.52;3.80;;;;;;;1.41;100.00;100550.69;5032247;28;20154;-81
2022/02/01 05:55:37;;;;;;;9.03;2.07;;;;;;;1.43;100.00;100525.94;5065102;28;20032;-81
2022/02/01 05:58:02;;;;;;;14.10;2.60;;;;;;;1.47;100.00;100522.16;5032168;28;20306;-81
2022/02/01 06:00:28;;;;;;;16.70;3.63;;;;;;;1.36;100.00;100515.94;5033555;28;20294;-81
2022/02/01 06:02:54;;;;;;;13.88;2.78;;;;;;;1.39;100.00;100515.75;5050778;28;20128;-81
2022/02/01 06:05:20;;;;;;;23.95;4.28;;;;;;;1.35;100.00;100512.47;5030406;28;20067;-81
2022/02/01 06:07:45;;;;;;;26.45;4.95;;;;;;;1.29;100.00;100506.81;5047542;28;20076;-80
2022/02/01 06:10:11;;;;;;;14.90;3.00;;;;;;;1.21;100.00;100492.41;5061585;28;20128;-81
2022/02/01 06:12:46;;;;;;;10.45;2.22;;;;;;;1.31;100.00;100500.50;5032363;28;20112;-81
2022/02/01 06:15:13;;;;;;;12.45;3.40;;;;;;;1.26;100.00;100511.34;5065377;28;20025;-81
2022/02/01 06:17:39;;;;;;;14.10;2.20;;;;;;;1.26;100.00;100508.72;5024476;28;20372;-81
2022/02/01 06:20:05;;;;;;;17.52;3.22;;;;;;;1.26;100.00;100502.59;5029577;28;20238;-81
2022/02/01 06:22:30;;;;;;;;;;;;;;;1.35;100.00;100501.13;5024974;28;20040;-81
2022/02/01 06:24:58;;;;;;;12.27;2.60;;;;;;;1.36;100.00;100500.16;5026327;28;19917;-81
2022/02/01 06:27:28;;;;;;;17.27;3.92;;;;;;;1.39;100.00;100498.16;5049774;28;20039;-81
2022/02/01 06:29:54;;;;;;;14.70;2.53;;;;;;;1.42;100.00;100502.38;5033251;28;20072;-80
2022/02/01 06:32:20;;;;;;;18.95;2.35;;;;;;;1.47;100.00;100505.50;5041379;28;20045;-81
2022/02/01 06:34:45;;;;;;;13.15;2.60;;;;;;;1.42;100.00;100490.03;5029957;28;20116;-81
2022/02/01 06:37:11;;;;;;;15.10;2.83;;;;;;;1.46;100.00;100493.31;5047052;28;20167;-81
2022/02/01 06:39:37;;;;;;;15.75;2.20;;;;;;;1.43;100.00;100483.84;5033547;28;20174;-81
2022/02/01 06:42:04;;;;;;;14.73;2.50;;;;;;;1.53;100.00;100491.06;5033651;28;20446;-80
2022/02/01 06:44:29;;;;;;;12.32;3.10;;;;;;;1.59;100.00;100495.88;5032949;28;20033;-81
2022/02/01 06:46:55;;;;;;;21.10;3.25;;;;;;;1.59;100.00;100483.59;5033174;28;20086;-81
2022/02/01 06:49:20;;;;;;;27.42;5.07;;;;;;;1.60;100.00;100485.25;5032743;28;20051;-81
2022/02/01 06:51:46;;;;;;;17.45;2.00;;;;;;;1.60;100.00;100464.19;5049818;28;20029;-81
2022/02/01 06:54:11;;;;;;;11.63;2.05;;;;;;;1.63;100.00;100463.97;5049169;28;20035;-81
2022/02/01 06:56:37;;;;;;;13.85;2.50;;;;;;;1.57;100.00;100445.16;5030045;28;20367;-80
2022/02/01 06:59:04;;;;;;;10.70;3.50;;;;;;;1.71;100.00;100452.91;5025592;28;20036;-81
2022/02/01 07:01:31;;;;;;;24.17;5.00;;;;;;;1.71;100.00;100437.13;5029956;28;20523;-81
2022/02/01 07:03:57;;;;;;;19.52;3.42;;;;;;;1.81;100.00;100450.44;5029363;28;20392;-81
2022/02/01 07:06:23;;;;;;;;;;;;;;;1.83;100.00;100448.53;5030522;28;20072;-82
2022/02/01 07:08:49;;;;;;;15.88;3.05;;;;;;;1.73;100.00;100431.72;5046441;28;20481;-81
2022/02/01 07:11:19;;;;;;;17.70;2.05;;;;;;;1.73;100.00;100426.44;5029737;28;20029;-81
2022/02/01 07:13:47;;;;;;;14.30;3.20;;;;;;;1.82;100.00;100438.94;5029654;28;20062;-82
2022/02/01 07:16:14;;;;;;;20.15;2.35;;;;;;;1.85;100.00;100446.59;5030202;28;20411;-82
2022/02/01 07:18:40;;;;;;;11.90;3.25;;;;;;;1.78;100.00;100440.09;5029952;28;20316;-82
2022/02/01 07:21:05;;;;;;;32.75;2.67;;;;;;;1.88;100.00;100446.38;5029413;28;20120;-81
2022/02/01 07:23:32;;;;;;;16.48;2.63;;;;;;;1.95;100.00;100442.34;5029509;28;20041;-82
2022/02/01 07:25:58;;;;;;;16.30;3.50;;;;;;;2.00;100.00;100447.25;5033361;28;20025;-80
2022/02/01 07:28:26;;;;;;;11.45;2.13;;;;;;;2.07;100.00;100451.13;5064926;28;20037;-80
2022/02/01 07:30:52;;;;;;;19.10;2.95;;;;;;;2.04;100.00;100439.03;5032913;28;20072;-80
2022/02/01 07:33:17;;;;;;;14.93;1.98;;;;;;;1.99;100.00;100414.84;5032429;28;20052;-81
2022/02/01 07:35:45;;;;;;;21.35;3.08;;;;;;;2.13;100.00;100434.88;5032209;28;20491;-80
2022/02/01 07:38:13;;;;;;;10.23;2.60;;;;;;;2.13;100.00;100426.09;5023004;28;20036;-81
2022/02/01 07:40:39;;;;;;;13.10;1.90;;;;;;;2.16;100.00;100418.00;5045778;28;20018;-81
2022/02/01 07:43:05;;;;;;;15.18;2.00;;;;;;;2.10;100.00;100403.47;5025552;28;20732;-81
2022/02/01 07:45:31;;;;;;;13.35;2.83;;;;;;;2.15;100.00;100417.13;5030128;28;20035;-81
2022/02/01 07:47:58;;;;;;;13.30;1.77;;;;;;;2.18;100.00;100421.31;5023965;28;20117;-80
2022/02/01 07:50:25;;;;;;;24.63;3.80;;;;;;;2.20;100.00;100415.00;5025348;28;20116;-81
2022/02/01 07:52:50;;;;;;;12.13;1.75;;;;;;;2.22;100.00;100404.34;5031294;28;20044;-80
2022/02/01 07:55:15;;;;;;;18.50;2.80;;;;;;;2.23;100.00;100390.22;5031679;28;20025;-81
2022/02/01 07:57:41;;;;;;;12.32;3.05;;;;;;;2.27;100.00;100383.75;5031479;28;20068;-80
2022/02/01 08:00:08;;;;;;;23.13;3.10;;;;;;;2.30;100.00;100380.88;5031292;28;20049;-80
2022/02/01 08:02:35;;;;;;;19.77;2.92;;;;;;;2.34;100.00;100374.41;5048213;28;20087;-80
2022/02/01 08:05:00;;;;;;;18.13;4.07;;;;;;;2.33;100.00;100370.09;5031285;28;20407;-80
2022/02/01 08:07:26;;;;;;;19.10;4.30;;;;;;;2.42;100.00;100361.50;5048421;28;20029;-80
2022/02/01 08:09:56;;;;;;;22.10;4.50;;;;;;;2.36;100.00;100335.59;5048589;28;20046;-80
2022/02/01 08:17:39;;;;;;;22.80;3.50;;;;;;;2.48;100.00;100328.53;5048605;28;20072;-80
2022/02/01 08:20:09;;;;;;;14.20;2.05;;;;;;;2.49;100.00;100322.31;5048246;28;20029;-81
2022/02/01 08:25:13;;;;;;;22.88;4.57;;;;;;;2.49;100.00;100315.25;5048195;28;20033;-80
2022/02/01 08:27:39;;;;;;;24.90;3.85;;;;;;;2.35;100.00;100294.44;5048650;28;20073;-80
2022/02/01 08:30:10;;;;;;;19.05;2.97;;;;;;;2.49;100.00;100314.44;5032015;28;20025;-80
2022/02/01 08:32:36;;;;;;;17.95;4.35;;;;;;;2.48;100.00;100308.31;5031772;28;20099;-79
2022/02/01 08:35:02;;;;;;;19.70;4.90;;;;;;;2.45;100.00;100295.38;5032669;28;20037;-80
2022/02/01 08:37:28;;;;;;;16.05;2.88;;;;;;;2.52;100.00;100301.00;5035502;28;20024;-79
2022/02/01 08:39:54;;;;;;;10.45;2.20;;;;;;;2.53;100.00;100302.69;5035547;28;20395;-81
2022/02/01 08:42:20;;;;;;;10.38;2.10;;;;;;;2.39;100.00;100292.38;5035347;28;20123;-79
2022/02/01 08:44:45;;;;;;;7.80;2.10;;;;;;;2.36;100.00;100284.72;5034893;28;20024;-80
2022/02/01 08:47:12;;;;;;;17.60;3.63;;;;;;;2.46;100.00;100296.22;5035172;28;20044;-80
2022/02/01 08:49:39;;;;;;;12.60;2.28;;;;;;;2.37;100.00;100274.06;5035062;28;20280;-79
2022/02/01 08:52:08;;;;;;;9.82;2.15;;;;;;;2.38;100.00;100265.19;5035548;28;20044;-80
2022/02/01 08:54:36;;;;;;;13.32;2.15;;;;;;;2.35;100.00;100269.88;5034779;28;20032;-80
2022/02/01 08:57:21;;;;;;;11.38;2.45;;;;;;;2.31;100.00;100262.19;5034882;28;20089;-79
2022/02/01 08:59:52;;;;;;;9.85;2.47;;;;;;;2.35;100.00;100270.72;5034870;28;20033;-80
2022/02/01 09:02:20;;;;;;;12.57;2.17;;;;;;;2.31;100.00;100242.94;5051586;28;20041;-79
2022/02/01 09:04:46;;;;;;;15.35;3.22;;;;;;;2.27;100.00;100242.34;5034637;28;20417;-79
2022/02/01 09:07:11;;;;;;;10.98;2.13;;;;;;;2.30;100.00;100243.91;5051495;28;20178;-80
2022/02/01 09:09:38;;;;;;;8.45;1.85;;;;;;;2.29;100.00;100229.91;5051420;28;20651;-80
2022/02/01 09:12:04;;;;;;;5.10;1.98;;;;;;;2.34;100.00;100237.41;5034212;28;20021;-79
2022/02/01 09:14:30;;;;;;;;;;;;;;;2.30;100.00;100220.19;5033842;28;20032;-78
2022/02/01 09:16:55;;;;;;;14.77;4.38;;;;;;;2.24;100.00;100207.50;5033997;28;19917;-78
2022/02/01 09:19:21;;;;;;;22.40;4.03;;;;;;;2.29;100.00;100224.63;5035236;28;20039;-80
2022/02/01 09:21:47;;;;;;;21.50;3.35;;;;;;;2.31;100.00;100195.50;5035072;28;20052;-81
2022/02/01 09:24:12;;;;;;;10.52;3.38;;;;;;;2.38;100.00;100201.97;5034524;28;20494;-80
2022/02/01 09:26:42;;;;;;;12.23;3.17;;;;;;;2.42;100.00;100182.31;5034547;28;20024;-81
2022/02/01 09:29:08;;;;;;;19.50;4.72;;;;;;;2.40;100.00;100180.78;5034656;28;20037;-81
2022/02/01 09:31:34;;;;;;;;;;;;;;;2.32;100.00;100171.69;5034884;28;20196;-79
2022/02/01 09:33:59;;;;;;;13.02;3.95;;;;;;;2.38;100.00;100170.34;5034675;28;20002;-80
2022/02/01 09:36:24;;;;;;;11.87;3.87;;;;;;;2.25;100.00;100148.63;5035202;28;20094;-79
2022/02/01 09:38:52;;;;;;;18.07;4.57;;;;;;;2.08;100.00;100115.72;5035638;28;20043;-78
2022/02/01 09:41:18;;;;;;;21.33;4.38;;;;;;;2.32;100.00;100133.97;5051678;28;20337;-80
2022/02/01 09:43:44;;;;;;;17.67;4.95;;;;;;;2.33;100.00;100115.41;5033975;28;20071;-80
2022/02/01 09:46:09;;;;;;;12.55;3.83;;;;;;;2.38;100.00;100109.75;5050705;28;20397;-80
2022/02/01 09:48:35;;;;;;;19.05;3.75;;;;;;;2.43;100.00;100112.00;5034832;28;20120;-79
2022/02/01 09:51:04;;;;;;;15.60;4.90;;;;;;;2.52;100.00;100098.09;5034600;28;20037;-80
2022/02/01 09:53:29;;;;;;;13.90;4.20;;;;;;;2.40;100.00;100088.56;5050983;28;20056;-81
2022/02/01 09:55:55;;;;;;;12.75;3.85;;;;;;;2.47;100.00;100085.28;5033810;28;20114;-78
2022/02/01 09:58:28;;;;;;;14.40;4.20;;;;;;;2.47;100.00;100080.03;5034181;28;20513;-79
2022/02/01 10:00:55;;;;;;;17.55;4.18;;;;;;;2.41;100.00;100075.28;5033665;28;20092;-80
2022/02/01 10:03:21;;;;;;;14.20;3.75;;;;;;;2.39;100.00;100071.94;5050648;28;20037;-80
2022/02/01 10:06:10;;;;;;;15.00;5.00;;;;;;;2.41;100.00;100079.69;5033539;28;20021;-81
2022/02/01 10:08:36;;;;;;;15.05;4.25;;;;;;;2.46;100.00;100056.44;5054733;22;20121;-78
2022/02/01 10:11:03;;;;;;;15.57;4.10;;;;;;;2.47;100.00;100056.31;5082784;28;20032;-83
2022/02/01 10:13:32;;;;;;;17.48;4.53;;;;;;;2.58;100.00;100038.78;5040753;28;20033;-84
2022/02/01 10:16:04;;;;;;;15.50;3.70;;;;;;;2.58;100.00;100028.25;5032278;28;20036;-83
2022/02/01 10:18:33;;;;;;;13.38;4.25;;;;;;;2.57;100.00;100032.66;5049084;28;20032;-85
2022/02/01 10:21:13;;;;;;;10.38;3.30;;;;;;;2.61;100.00;100009.53;5053524;28;20028;-84
2022/02/01 10:23:43;;;;;;;13.77;3.60;;;;;;;2.60;100.00;99984.13;5052601;28;20068;-82
2022/02/01 10:26:09;;;;;;;10.65;3.88;;;;;;;2.66;100.00;99980.97;5053267;28;20028;-84
2022/02/01 10:29:18;;;;;;;11.10;4.03;;;;;;;2.66;100.00;99952.00;5070785;28;20450;-84
2022/02/01 10:31:52;;;;;;;10.60;3.45;;;;;;;2.58;100.00;99938.66;5052834;28;20036;-84
2022/02/01 10:34:41;;;;;;;16.05;4.07;;;;;;;2.52;100.00;99932.91;5068892;28;20032;-83
2022/02/01 10:37:22;;;;;;;9.57;2.90;;;;;;;2.66;100.00;99936.16;5069204;28;20047;-85
2022/02/01 10:40:02;;;;;;;7.50;2.78;;;;;;;2.71;100.00;99918.16;5069353;28;20040;-83
2022/02/01 10:42:28;;;;;;;7.65;2.70;;;;;;;2.64;100.00;99907.31;5052795;28;20112;-85
2022/02/01 10:44:56;;;;;;;12.50;3.38;;;;;;;2.64;100.00;99880.94;5052300;28;20680;-85
2022/02/01 10:47:40;;;;;;;8.88;2.65;;;;;;;2.47;100.00;99853.44;5069076;28;20031;-84
2022/02/01 10:50:07;;;;;;;5.20;2.05;;;;;;;2.62;100.00;99855.69;5052549;28;20746;-84
2022/02/01 10:52:38;;;;;;;7.50;2.17;;;;;;;2.57;100.00;99852.63;5070352;28;20122;-84
2022/02/01 10:55:06;;;;;;;3.10;2.30;;;;;;;2.54;100.00;99833.47;5052001;28;20043;-84
2022/02/01 10:57:31;;;;;;;5.43;2.00;;;;;;;2.47;100.00;99826.25;5068505;28;20047;-84
2022/02/01 10:59:57;;;;;;;7.25;2.40;;;;;;;2.56;100.00;99832.53;5068210;28;20064;-85
2022/02/01 11:02:24;;;;;;;7.45;2.10;;;;;;;2.61;100.00;99822.41;5052470;28;20035;-84
2022/02/01 11:04:52;;;;;;;5.70;1.90;;;;;;;2.42;100.00;99791.56;5051811;28;20036;-83
2022/02/01 11:07:18;;;;;;;8.65;2.35;;;;;;;2.54;100.00;99801.84;5068649;28;20032;-85
2022/02/01 11:09:43;;;;;;;4.45;1.55;;;;;;;2.46;100.00;99772.72;5051810;28;20043;-83
2022/02/01 11:12:12;;;;;;;4.63;2.22;;;;;;;2.47;100.00;99771.75;5068721;28;20071;-83
2022/02/01 11:14:43;;;;;;;3.80;2.20;;;;;;;2.45;100.00;99760.50;5072833;28;20091;-80
2022/02/01 11:17:11;;;;;;;4.72;1.50;;;;;;;2.50;100.00;99737.22;5073394;28;20041;-84
2022/02/01 11:19:53;;;;;;;4.25;1.58;;;;;;;2.44;100.00;99743.03;5070815;28;20040;-81
2022/02/01 11:22:32;;;;;;;4.47;1.67;;;;;;;2.53;100.00;99741.41;5052087;28;20061;-83
2022/02/01 11:25:19;;;;;;;2.83;1.50;;;;;;;2.52;100.00;99726.56;5053001;28;20036;-84
2022/02/01 11:30:57;;;;;;;3.92;1.10;;;;;;;2.57;100.00;99716.44;5073264;28;20044;-81
2022/02/01 11:33:34;;;;;;;2.67;1.52;;;;;;;2.51;100.00;99699.38;5042070;28;20040;-86
2022/02/01 11:36:03;;;;;;;3.25;1.73;;;;;;;2.58;100.00;99693.56;5054160;28;20228;-85
2022/02/01 11:38:28;;;;;;;8.75;1.65;;;;;;;2.56;100.00;99677.88;5052170;28;20177;-84
2022/02/01 11:41:07;;;;;;;2.25;1.25;;;;;;;2.68;100.00;99687.31;5051921;28;20123;-83
2022/02/01 11:43:35;;;;;;;3.95;1.65;;;;;;;2.72;100.00;99678.19;5051715;28;20045;-85
2022/02/01 11:46:04;;;;;;;4.53;1.50;;;;;;;2.69;100.00;99657.38;5051641;28;20045;-84
2022/02/01 11:48:36;;;;;;;4.10;1.50;;;;;;;2.93;100.00;99664.84;5051735;28;20085;-81
2022/02/01 11:51:04;;;;;;;7.10;3.33;;;;;;;3.02;100.00;99662.34;5068946;28;20679;-85
2022/02/01 11:53:33;;;;;;;28.63;16.05;;;;;;;3.06;100.00;99667.19;5052252;28;20040;-82
2022/02/01 11:55:59;;;;;;;4.00;3.13;;;;;;;3.03;100.00;99643.75;5055513;28;20382;-84
2022/02/01 11:58:51;;;;;;;3.17;2.28;;;;;;;3.24;100.00;99646.22;5052670;28;20032;-82
2022/02/01 12:01:38;;;;;;;2.70;1.80;;;;;;;3.13;100.00;99652.47;5068444;28;20055;-82
2022/02/01 12:04:17;;;;;;;3.17;2.00;;;;;;;3.23;100.00;99636.66;5067496;28;20518;-84
2022/02/01 12:06:53;;;;;;;6.20;2.75;;;;;;;3.27;100.00;99619.53;5051147;28;20039;-81
2022/02/01 12:09:20;;;;;;;7.38;2.28;;;;;;;3.26;100.00;99607.34;5052798;28;20029;-83
2022/02/01 12:11:47;;;;;;;3.38;1.98;;;;;;;3.34;100.00;99609.25;5054841;28;20041;-84
2022/02/01 12:14:12;;;;;;;3.38;1.88;;;;;;;3.35;100.00;99608.28;5054548;28;20056;-82
2022/02/01 12:16:46;;;;;;;3.53;1.83;;;;;;;3.41;100.00;99607.69;5072012;28;20715;-84
2022/02/01 12:19:16;;;;;;;3.58;2.42;;;;;;;3.47;100.00;99608.94;5055267;28;20032;-84
2022/02/01 12:21:58;;;;;;;2.70;2.03;;;;;;;3.52;100.00;99596.13;5055250;28;20464;-84
2022/02/01 12:24:27;;;;;;;6.82;2.10;;;;;;;3.54;100.00;99589.72;5071506;28;20040;-82
2022/02/01 12:26:53;;;;;;;4.28;2.20;;;;;;;3.58;100.00;99599.03;5071730;28;20025;-84
2022/02/01 12:29:19;;;;;;;;;;;;;;;3.60;100.00;99590.94;5055917;28;20029;-84
2022/02/01 12:31:45;;;;;;;4.75;2.17;;;;;;;3.74;100.00;99587.81;5072830;28;19916;-82
2022/02/01 12:34:13;;;;;;;3.25;2.45;;;;;;;3.78;100.00;99576.00;5054617;28;20531;-84
2022/02/01 12:36:42;;;;;;;5.43;2.92;;;;;;;3.76;100.00;99562.09;5054742;28;20086;-83
2022/02/01 12:39:16;;;;;;;4.45;2.92;;;;;;;3.86;100.00;99562.03;5055102;28;20127;-82
2022/02/01 12:41:55;;;;;;;5.43;3.17;;;;;;;3.89;100.00;99560.94;5055977;28;20044;-85
2022/02/01 12:46:52;;;;;;;6.22;3.42;;;;;;;3.89;100.00;99561.78;5073655;28;20585;-83
2022/02/01 12:49:39;;;;;;;8.30;4.40;;;;;;;3.95;100.00;99563.81;5072949;28;20082;-83